createdAt,value
2022-10-21T00:01:54.296Z,5.11
2022-10-21T00:04:21.211Z,5.06
2022-10-21T00:06:48.133Z,4.97
2022-10-21T00:09:15.061Z,4.65
2022-10-21T00:11:42.037Z,4.67
2022-10-21T00:14:09.197Z,4.83
2022-10-21T00:16:36.118Z,4.87
2022-10-21T00:19:03.377Z,4.92
2022-10-21T00:21:30.287Z,4.89
2022-10-21T00:23:57.219Z,4.88
2022-10-21T00:26:24.336Z,4.86
2022-10-21T00:28:56.725Z,4.66
2022-10-21T00:31:24.885Z,3.91
2022-10-21T00:33:52.196Z,3.76
2022-10-21T00:36:19.394Z,3.75
2022-10-21T00:38:48.683Z,3.62
2022-10-21T00:41:17.972Z,3.66
2022-10-21T00:43:55.686Z,3.73
2022-10-21T00:46:46.738Z,3.52
2022-10-21T00:49:36.441Z,3.60
2022-10-21T00:52:07.129Z,3.70
2022-10-21T00:54:35.434Z,3.72
2022-10-21T00:57:02.426Z,3.72
2022-10-21T00:59:34.341Z,3.71
2022-10-21T01:02:01.332Z,3.45
2022-10-21T01:04:28.411Z,3.53
2022-10-21T01:06:56.134Z,3.50
2022-10-21T01:09:23.878Z,3.37
2022-10-21T01:11:50.778Z,3.26
2022-10-21T01:14:38.558Z,3.30
2022-10-21T01:17:43.735Z,3.20
2022-10-21T01:21:05.302Z,3.26
2022-10-21T01:24:08.712Z,3.20
2022-10-21T01:27:06.434Z,3.13
2022-10-21T01:29:58.622Z,3.04
2022-10-21T01:32:31.261Z,3.16
2022-10-21T01:35:06.735Z,3.14
2022-10-21T01:37:58.401Z,3.26
2022-10-21T01:40:43.064Z,3.27
2022-10-21T01:43:15.792Z,3.25
2022-10-21T01:45:56.860Z,3.24
2022-10-21T01:48:30.028Z,3.27
2022-10-21T01:51:01.750Z,3.21
2022-10-21T01:54:03.834Z,3.14
2022-10-21T01:56:32.318Z,3.00
2022-10-21T01:59:01.561Z,2.97
2022-10-21T02:01:29.410Z,2.81
2022-10-21T02:04:01.261Z,2.60
2022-10-21T02:06:28.389Z,2.56
2022-10-21T02:08:55.731Z,2.61
2022-10-21T02:11:23.065Z,2.58
2022-10-21T02:14:02.835Z,2.72
2022-10-21T02:16:35.618Z,2.88
2022-10-21T02:19:02.546Z,2.87
2022-10-21T02:21:34.551Z,2.78
2022-10-21T02:24:20.261Z,2.73
2022-10-21T02:26:47.185Z,2.79
2022-10-21T02:29:15.118Z,2.80
2022-10-21T02:32:07.828Z,2.74
2022-10-21T02:34:43.518Z,2.64
2022-10-21T02:37:36.837Z,2.84
2022-10-21T02:40:12.094Z,3.03
2022-10-21T02:42:48.218Z,3.13
2022-10-21T02:45:17.687Z,3.22
2022-10-21T02:47:45.035Z,2.99
2022-10-21T02:50:13.058Z,2.78
2022-10-21T02:52:39.989Z,2.49
2022-10-21T02:55:07.274Z,2.53
2022-10-21T02:57:34.166Z,2.59
2022-10-21T03:00:01.071Z,2.59
2022-10-21T03:02:27.960Z,2.61
2022-10-21T03:04:54.806Z,2.56
2022-10-21T03:07:21.652Z,2.51
2022-10-21T03:09:48.516Z,2.33
2022-10-21T03:12:15.467Z,2.34
2022-10-21T03:14:42.349Z,2.30
2022-10-21T03:17:09.352Z,2.28
2022-10-21T03:19:36.223Z,2.22
2022-10-21T03:22:03.104Z,2.51
2022-10-21T03:24:29.956Z,2.56
2022-10-21T03:26:56.823Z,2.61
2022-10-21T03:29:23.851Z,2.63
2022-10-21T03:31:50.800Z,2.58
2022-10-21T03:34:17.865Z,2.42
2022-10-21T03:36:44.794Z,2.27
2022-10-21T03:39:12.378Z,2.10
2022-10-21T03:41:39.618Z,1.95
2022-10-21T03:44:06.703Z,1.82
2022-10-21T03:46:33.609Z,1.91
2022-10-21T03:49:04.197Z,2.01
2022-10-21T03:51:33.006Z,2.11
2022-10-21T03:53:59.889Z,2.21
2022-10-21T03:56:26.765Z,2.24
2022-10-21T03:58:57.806Z,2.12
2022-10-21T04:01:26.059Z,1.70
2022-10-21T04:03:53.386Z,1.63
2022-10-21T04:06:20.241Z,1.59
2022-10-21T04:08:47.388Z,1.60
2022-10-21T04:11:14.324Z,1.52
2022-10-21T04:13:41.464Z,1.55
2022-10-21T04:16:13.763Z,1.44
2022-10-21T04:18:41.036Z,1.56
2022-10-21T04:21:08.915Z,1.48
2022-10-21T04:23:36.597Z,1.60
2022-10-21T04:26:04.709Z,1.90
2022-10-21T04:28:31.716Z,2.01
2022-10-21T04:30:58.690Z,2.09
2022-10-21T04:33:25.752Z,2.22
2022-10-21T04:35:55.091Z,2.29
2022-10-21T04:38:23.276Z,2.36
2022-10-21T04:41:00.306Z,2.33
2022-10-21T04:43:27.870Z,1.74
2022-10-21T04:45:55.165Z,1.60
2022-10-21T04:48:23.036Z,1.69
2022-10-21T04:50:53.279Z,1.72
2022-10-21T04:53:21.201Z,1.71
2022-10-21T04:55:52.907Z,1.78
2022-10-21T04:58:22.007Z,1.82
2022-10-21T05:00:52.883Z,1.85
2022-10-21T05:03:20.392Z,1.93
2022-10-21T05:05:51.697Z,2.05
2022-10-21T05:08:20.024Z,2.22
2022-10-21T05:10:47.085Z,2.31
2022-10-21T05:13:14.623Z,2.42
2022-10-21T05:15:41.523Z,2.54
2022-10-21T05:18:08.403Z,2.63
2022-10-21T05:20:35.316Z,2.74
2022-10-21T05:23:02.233Z,2.98
2022-10-21T05:25:31.783Z,3.16
2022-10-21T05:28:01.191Z,3.25
2022-10-21T05:30:28.184Z,3.40
2022-10-21T05:32:55.161Z,3.57
2022-10-21T05:35:22.007Z,3.67
2022-10-21T05:37:48.916Z,3.79
2022-10-21T05:40:15.881Z,3.93
2022-10-21T05:42:42.818Z,4.07
2022-10-21T05:45:10.573Z,4.24
2022-10-21T05:47:38.367Z,4.33
2022-10-21T05:50:05.628Z,4.54
2022-10-21T05:52:32.475Z,4.66
2022-10-21T05:54:59.309Z,4.90
2022-10-21T05:57:26.171Z,5.07
2022-10-21T05:59:53.005Z,5.24
2022-10-21T06:02:19.873Z,5.48
2022-10-21T06:04:46.760Z,5.57
2022-10-21T06:07:13.651Z,5.74
2022-10-21T06:09:40.594Z,5.87
2022-10-21T06:12:07.864Z,6.04
2022-10-21T06:14:37.577Z,6.21
2022-10-21T06:21:40.374Z,6.48
2022-10-21T06:24:07.380Z,6.60
2022-10-21T06:26:36.208Z,6.83
2022-10-21T06:29:04.199Z,6.96
2022-10-21T06:31:31.222Z,7.12
2022-10-21T06:33:58.040Z,7.30
2022-10-21T06:36:24.867Z,7.45
2022-10-21T06:38:51.736Z,7.85
2022-10-21T06:41:19.142Z,7.79
2022-10-21T06:43:46.061Z,7.72
2022-10-21T06:46:15.665Z,7.89
2022-10-21T06:48:42.551Z,7.99
2022-10-21T06:51:12.656Z,8.17
2022-10-21T06:53:39.746Z,8.30
2022-10-21T06:56:09.323Z,8.87
2022-10-21T06:58:37.574Z,9.12
2022-10-21T07:01:27.307Z,9.49
2022-10-21T07:04:00.298Z,9.17
2022-10-21T07:06:27.316Z,9.28
2022-10-21T07:08:58.255Z,9.78
2022-10-21T07:11:26.535Z,9.95
2022-10-21T07:13:53.387Z,9.64
2022-10-21T07:16:28.919Z,9.52
2022-10-21T07:18:56.773Z,9.67
2022-10-21T07:21:26.526Z,9.87
2022-10-21T07:23:56.583Z,9.78
2022-10-21T07:26:28.517Z,10.30
2022-10-21T07:28:58.292Z,10.56
2022-10-21T07:31:25.455Z,10.97
2022-10-21T07:33:52.579Z,11.22
2022-10-21T07:36:23.507Z,11.43
2022-10-21T07:38:51.642Z,11.23
2022-10-21T07:41:24.196Z,11.35
2022-10-21T07:43:51.976Z,11.86
2022-10-21T07:46:20.336Z,11.75
2022-10-21T07:48:47.840Z,11.78
2022-10-21T07:55:04.987Z,11.71
2022-10-21T07:57:31.942Z,11.88
2022-10-21T07:59:58.867Z,11.74
2022-10-21T08:02:25.782Z,12.23
2022-10-21T08:04:55.101Z,12.26
2022-10-21T08:07:21.982Z,12.44
2022-10-21T08:09:49.024Z,12.73
2022-10-21T08:12:16.016Z,12.92
2022-10-21T08:14:42.884Z,13.27
2022-10-21T08:17:09.805Z,12.74
2022-10-21T08:19:36.690Z,12.91
2022-10-21T08:22:03.572Z,13.07
2022-10-21T08:24:30.589Z,13.29
2022-10-21T08:26:57.537Z,13.51
2022-10-21T08:29:24.784Z,13.58
2022-10-21T08:31:52.873Z,13.36
2022-10-21T08:34:19.716Z,13.52
2022-10-21T08:36:46.658Z,13.62
2022-10-21T08:39:13.650Z,13.77
2022-10-21T08:42:00.905Z,13.37
2022-10-21T08:44:27.658Z,13.90
2022-10-21T08:47:18.503Z,14.06
2022-10-21T08:50:12.503Z,14.11
2022-10-21T08:52:55.038Z,13.61
2022-10-21T08:55:34.572Z,14.03
2022-10-21T08:58:02.705Z,13.78
2022-10-21T09:00:36.006Z,13.53
2022-10-21T09:03:29.833Z,13.98
2022-10-21T09:06:33.900Z,14.30
2022-10-21T09:09:42.073Z,14.39
2022-10-21T09:12:15.272Z,14.67
2022-10-21T09:14:51.327Z,14.62
2022-10-21T09:17:37.037Z,14.27
2022-10-21T09:20:41.345Z,14.31
2022-10-21T09:26:26.595Z,14.02
2022-10-21T09:28:56.925Z,14.08
2022-10-21T09:31:23.770Z,14.24
2022-10-21T09:33:57.360Z,13.89
2022-10-21T09:36:32.535Z,14.21
2022-10-21T09:39:06.556Z,14.32
2022-10-21T09:41:41.084Z,13.89
2022-10-21T10:16:33.234Z,13.88
2022-10-21T10:19:20.067Z,14.05
2022-10-21T10:22:10.222Z,14.16
2022-10-21T10:24:40.746Z,14.60
2022-10-21T10:27:23.591Z,14.62
2022-10-21T10:29:55.581Z,14.85
2022-10-21T10:32:26.045Z,15.01
2022-10-21T10:34:56.791Z,14.42
2022-10-21T10:37:26.395Z,14.72
2022-10-21T10:39:59.413Z,14.97
2022-10-21T10:42:34.055Z,14.94
2022-10-21T10:45:05.653Z,14.73
2022-10-21T10:47:42.242Z,14.92
2022-10-21T10:50:35.250Z,15.02
2022-10-21T10:53:31.086Z,14.56
2022-10-21T10:56:03.714Z,14.82
2022-10-21T10:58:35.947Z,14.55
2022-10-21T11:01:11.483Z,14.77
2022-10-21T11:03:47.725Z,14.66
2022-10-21T11:06:21.898Z,14.80
2022-10-21T11:08:57.788Z,14.91
2022-10-21T11:11:36.668Z,14.89
2022-10-21T11:14:03.663Z,14.75
2022-10-21T11:16:59.430Z,14.61
2022-10-21T11:19:30.599Z,14.81
2022-10-21T11:22:06.037Z,14.67
2022-10-21T11:24:54.884Z,14.56
2022-10-21T11:27:59.901Z,14.58
2022-10-21T11:31:27.888Z,14.56
2022-10-21T11:34:03.232Z,14.53
2022-10-21T11:37:02.413Z,14.46
2022-10-21T11:39:54.305Z,14.32
2022-10-21T11:42:47.328Z,14.46
2022-10-21T12:00:25.617Z,14.13
2022-10-21T12:03:26.277Z,14.27
2022-10-21T12:06:04.165Z,13.96
2022-10-21T12:08:43.837Z,14.00
2022-10-21T12:11:29.375Z,14.08
2022-10-21T12:14:26.563Z,14.08
2022-10-21T12:16:58.795Z,13.72
2022-10-21T12:19:26.296Z,13.62
2022-10-21T12:21:53.209Z,13.70
2022-10-21T12:24:42.363Z,13.70
2022-10-21T12:27:29.990Z,13.59
2022-10-21T12:30:03.296Z,13.57
2022-10-21T12:32:45.007Z,13.26
2022-10-21T12:35:17.071Z,13.66
2022-10-21T12:37:52.860Z,13.74
2022-10-21T12:40:25.776Z,13.53
2022-10-21T12:43:05.877Z,13.19
2022-10-21T12:45:35.830Z,13.36
2022-10-21T12:48:31.927Z,13.16
2022-10-21T12:51:02.544Z,13.29
2022-10-21T12:53:42.965Z,13.29
2022-10-21T12:56:11.150Z,13.20
2022-10-21T12:58:44.113Z,13.21
2022-10-21T13:01:42.356Z,13.12
2022-10-21T13:04:34.048Z,13.24
2022-10-21T13:07:01.815Z,13.22
2022-10-21T13:09:43.910Z,13.22
2022-10-21T13:12:10.933Z,13.24
2022-10-21T13:15:22.190Z,13.04
2022-10-21T13:17:52.820Z,12.96
2022-10-21T13:20:22.692Z,12.93
2022-10-21T13:23:01.873Z,12.76
2022-10-21T13:25:32.994Z,12.88
2022-10-21T13:28:25.800Z,12.85
2022-10-21T13:30:52.651Z,12.93
2022-10-21T13:33:25.620Z,12.93
2022-10-21T13:35:56.102Z,12.89
2022-10-21T13:38:23.227Z,12.90
2022-10-21T13:40:56.691Z,12.69
2022-10-21T13:43:48.380Z,12.51
2022-10-21T13:46:19.048Z,12.53
2022-10-21T13:48:48.497Z,12.50
2022-10-21T13:51:23.799Z,12.50
2022-10-21T13:53:55.208Z,12.53
2022-10-21T13:56:24.176Z,12.34
2022-10-21T13:58:51.812Z,12.50
2022-10-21T14:01:31.331Z,12.38
2022-10-21T14:04:15.781Z,12.30
2022-10-21T14:06:48.795Z,12.00
2022-10-21T14:09:44.492Z,11.99
2022-10-21T14:12:20.004Z,12.10
2022-10-21T14:14:47.495Z,11.98
2022-10-21T14:17:19.863Z,11.81
2022-10-21T14:19:51.090Z,11.91
2022-10-21T14:22:24.998Z,11.86
2022-10-21T14:24:56.830Z,11.88
2022-10-21T14:27:32.812Z,11.92
2022-10-21T14:30:03.742Z,11.79
2022-10-21T14:32:31.049Z,11.81
2022-10-21T14:35:07.307Z,11.64
2022-10-21T14:37:44.847Z,11.73
2022-10-21T14:40:33.693Z,11.63
2022-10-21T14:43:03.830Z,11.81
2022-10-21T14:45:36.515Z,11.61
2022-10-21T14:48:11.827Z,11.57
2022-10-21T14:50:41.527Z,11.64
2022-10-21T14:53:17.180Z,11.55
2022-10-21T14:55:46.002Z,11.54
2022-10-21T14:58:23.329Z,11.62
2022-10-21T15:00:59.929Z,11.45
2022-10-21T15:03:57.582Z,11.22
2022-10-21T15:06:30.201Z,11.07
2022-10-21T15:08:57.313Z,10.93
2022-10-21T15:11:26.873Z,10.88
2022-10-21T15:14:13.607Z,10.99
2022-10-21T15:16:51.260Z,10.70
2022-10-21T15:19:25.437Z,10.72
2022-10-21T15:22:03.442Z,10.70
2022-10-21T15:24:46.316Z,10.71
2022-10-21T15:27:42.408Z,10.75
2022-10-21T15:30:17.833Z,10.75
2022-10-21T15:32:45.147Z,10.60
2022-10-21T15:35:17.727Z,10.76
2022-10-21T15:37:49.556Z,10.71
2022-10-21T15:40:18.099Z,10.60
2022-10-21T15:42:45.741Z,10.55
2022-10-21T15:45:15.352Z,10.42
2022-10-21T15:47:42.402Z,10.46
2022-10-21T15:50:16.624Z,10.49
2022-10-21T15:52:44.081Z,10.54
2022-10-21T15:55:11.426Z,10.47
2022-10-21T15:57:42.304Z,10.41
2022-10-21T16:00:21.836Z,10.37
2022-10-21T16:02:51.710Z,10.24
2022-10-21T16:05:19.757Z,10.31
2022-10-21T16:07:46.699Z,10.32
2022-10-21T16:10:19.691Z,10.42
2022-10-21T16:12:46.911Z,10.41
2022-10-21T16:15:14.683Z,10.35
2022-10-21T16:17:47.273Z,10.23
2022-10-21T16:20:27.251Z,10.40
2022-10-21T16:22:54.358Z,10.35
2022-10-21T16:25:21.834Z,10.22
2022-10-21T16:27:56.240Z,10.24
2022-10-21T16:30:26.988Z,10.24
2022-10-21T16:32:54.616Z,10.17
2022-10-21T16:35:22.047Z,10.03
2022-10-21T16:37:49.838Z,10.00
2022-10-21T16:40:23.871Z,10.17
2022-10-21T16:42:52.522Z,10.22
2022-10-21T16:45:21.274Z,10.16
2022-10-21T16:47:52.902Z,10.14
2022-10-21T16:50:43.909Z,10.23
2022-10-21T16:53:14.981Z,10.12
2022-10-21T16:55:42.149Z,10.11
2022-10-21T16:58:09.189Z,10.18
2022-10-21T17:00:36.263Z,10.19
2022-10-21T17:03:03.329Z,10.16
2022-10-21T17:05:30.328Z,10.02
2022-10-21T17:07:58.650Z,10.23
2022-10-21T17:10:25.980Z,10.11
2022-10-21T17:12:58.896Z,9.92
2022-10-21T17:15:26.762Z,10.11
2022-10-21T17:17:53.868Z,10.15
2022-10-21T17:20:21.040Z,10.00
2022-10-21T17:22:48.095Z,9.92
2022-10-21T17:25:15.024Z,10.01
2022-10-21T17:27:42.155Z,10.08
2022-10-21T17:30:10.259Z,10.03
2022-10-21T17:32:37.207Z,9.89
2022-10-21T17:35:04.325Z,9.98
2022-10-21T17:37:31.191Z,9.97
2022-10-21T17:39:58.167Z,10.11
2022-10-21T17:42:25.088Z,10.03
2022-10-21T17:44:52.823Z,10.04
2022-10-21T17:47:19.785Z,9.94
2022-10-21T17:49:46.668Z,10.01
2022-10-21T17:52:13.585Z,10.06
2022-10-21T17:54:40.504Z,10.05
2022-10-21T17:57:07.433Z,10.07
2022-10-21T17:59:34.418Z,9.97
2022-10-21T18:02:01.998Z,9.96
2022-10-21T18:04:28.882Z,9.86
2022-10-21T18:06:56.026Z,9.95
2022-10-21T18:09:22.985Z,9.86
2022-10-21T18:11:50.002Z,9.88
2022-10-21T18:14:16.941Z,9.95
2022-10-21T18:16:43.805Z,9.94
2022-10-21T18:19:12.181Z,9.97
2022-10-21T18:21:39.211Z,9.93
2022-10-21T18:24:09.918Z,9.94
2022-10-21T18:26:39.742Z,10.06
2022-10-21T18:29:06.669Z,9.87
2022-10-21T18:31:37.263Z,9.94
2022-10-21T18:34:05.287Z,9.85
2022-10-21T18:36:32.433Z,9.81
2022-10-21T18:39:00.390Z,9.96
2022-10-21T18:41:27.879Z,9.94
2022-10-21T18:44:04.789Z,9.96
2022-10-21T18:46:32.230Z,10.00
2022-10-21T18:48:59.377Z,9.97
2022-10-21T18:51:26.277Z,10.01
2022-10-21T18:53:53.468Z,9.84
2022-10-21T18:56:22.494Z,9.81
2022-10-21T18:58:50.117Z,9.83
2022-10-21T19:01:18.331Z,9.85
2022-10-21T19:03:46.233Z,9.82
2022-10-21T19:06:42.819Z,9.87
2022-10-21T19:09:20.265Z,9.89
2022-10-21T19:11:47.726Z,9.70
2022-10-21T19:14:16.015Z,9.63
2022-10-21T19:16:44.000Z,9.74
2022-10-21T19:19:11.101Z,9.73
2022-10-21T19:21:38.121Z,9.73
2022-10-21T19:24:05.372Z,9.73
2022-10-21T19:26:34.337Z,9.75
2022-10-21T19:29:07.303Z,9.68
2022-10-21T19:31:36.194Z,9.70
2022-10-21T19:34:06.021Z,9.79
2022-10-21T19:36:32.920Z,9.63
2022-10-21T19:38:59.872Z,9.79
2022-10-21T19:41:26.721Z,9.78
2022-10-21T19:43:58.536Z,9.69
2022-10-21T19:46:27.738Z,9.77
2022-10-21T19:48:54.937Z,9.62
2022-10-21T19:51:24.058Z,9.65
2022-10-21T19:53:51.905Z,9.57
2022-10-21T19:56:23.730Z,9.64
2022-10-21T19:58:54.210Z,9.72
2022-10-21T20:01:24.813Z,9.73
2022-10-21T20:03:53.495Z,9.63
2022-10-21T20:06:23.682Z,9.63
2022-10-21T20:08:51.355Z,9.69
2022-10-21T20:11:20.018Z,9.52
2022-10-21T20:13:47.964Z,9.62
2022-10-21T20:16:17.250Z,9.57
2022-10-21T20:18:44.240Z,9.68
2022-10-21T20:21:11.136Z,9.76
2022-10-21T20:23:38.005Z,9.68
2022-10-21T20:26:05.657Z,9.73
2022-10-21T20:28:32.619Z,9.67
2022-10-21T20:31:06.806Z,9.76
2022-10-21T20:33:36.962Z,9.79
2022-10-21T20:36:06.213Z,9.79
2022-10-21T20:38:33.721Z,9.78
2022-10-21T20:41:03.095Z,9.73
2022-10-21T20:43:30.285Z,9.71
2022-10-21T20:46:00.538Z,9.77
2022-10-21T20:48:28.195Z,9.65
2022-10-21T20:51:09.038Z,9.71
2022-10-21T20:53:37.119Z,9.64
2022-10-21T20:56:04.191Z,9.62
2022-10-21T20:58:35.018Z,9.46
2022-10-21T21:01:14.551Z,9.45
2022-10-21T21:03:43.004Z,9.55
2022-10-21T21:06:11.726Z,9.60
2022-10-21T21:08:48.706Z,9.70
2022-10-21T21:11:21.227Z,9.67
2022-10-21T21:13:48.542Z,9.53
2022-10-21T21:16:18.152Z,9.46
2022-10-21T21:18:51.083Z,9.59
2022-10-21T21:21:19.296Z,9.60
2022-10-21T21:23:46.517Z,9.58
2022-10-21T21:26:17.523Z,9.61
2022-10-21T21:28:45.839Z,9.60
2022-10-21T21:31:14.345Z,9.56
2022-10-21T21:33:42.565Z,9.56
2022-10-21T21:36:09.594Z,9.60
2022-10-21T21:38:36.513Z,9.61
2022-10-21T21:41:06.727Z,9.50
2022-10-21T21:43:37.001Z,9.50
2022-10-21T21:46:04.671Z,9.43
2022-10-21T21:48:32.826Z,9.43
2022-10-21T21:51:10.311Z,9.56
2022-10-21T21:53:38.393Z,9.45
2022-10-21T21:56:07.593Z,9.52
2022-10-21T21:58:34.479Z,9.49
2022-10-21T22:01:14.791Z,9.37
2022-10-21T22:03:42.550Z,9.53
2022-10-21T22:06:09.924Z,9.55
2022-10-21T22:08:41.801Z,9.60
2022-10-21T22:11:11.921Z,9.53
2022-10-21T22:13:39.693Z,9.52
2022-10-21T22:16:08.439Z,9.30
2022-10-21T22:18:36.287Z,9.22
2022-10-21T22:21:12.198Z,9.37
2022-10-21T22:23:40.257Z,9.26
2022-10-21T22:26:07.748Z,9.10
2022-10-21T22:28:35.500Z,9.26
2022-10-21T22:31:11.684Z,9.14
2022-10-21T22:33:39.410Z,9.24
2022-10-21T22:36:06.773Z,9.31
2022-10-21T22:38:33.949Z,9.29
2022-10-21T22:41:02.626Z,9.32
2022-10-21T22:43:30.276Z,9.32
2022-10-21T22:46:05.205Z,9.34
2022-10-21T22:48:42.397Z,9.27
2022-10-21T22:51:09.404Z,9.11
2022-10-21T22:53:36.880Z,9.20
2022-10-21T22:56:04.515Z,9.24
2022-10-21T22:58:31.619Z,9.36
2022-10-21T23:00:58.769Z,9.37
2022-10-21T23:03:25.701Z,9.27
2022-10-21T23:05:52.665Z,9.31
2022-10-21T23:08:19.563Z,9.10
2022-10-21T23:10:49.360Z,9.13
2022-10-21T23:13:16.658Z,9.21
2022-10-21T23:15:44.207Z,9.14
2022-10-21T23:18:11.329Z,9.03
2022-10-21T23:20:38.556Z,8.91
2022-10-21T23:23:05.828Z,8.97
2022-10-21T23:25:33.304Z,8.91
2022-10-21T23:28:00.155Z,8.98
2022-10-21T23:30:27.150Z,8.90
2022-10-21T23:32:54.018Z,8.86
2022-10-21T23:35:21.069Z,8.85
2022-10-21T23:37:47.972Z,8.86
2022-10-21T23:40:14.884Z,8.85
2022-10-21T23:42:42.879Z,8.90
2022-10-21T23:45:11.542Z,8.87
2022-10-21T23:47:39.901Z,8.81
2022-10-21T23:50:08.877Z,8.79
2022-10-21T23:52:36.841Z,8.77
2022-10-21T23:55:08.684Z,8.68
2022-10-21T23:57:35.609Z,8.74
